createdAt,value
2022-11-30T00:00:22.151Z,68.26
2022-11-30T00:02:54.006Z,68.42
2022-11-30T00:05:21.048Z,67.93
2022-11-30T00:07:47.602Z,66.65
2022-11-30T00:10:14.253Z,66.66
2022-11-30T00:12:43.581Z,67.99
2022-11-30T00:15:14.015Z,67.94
2022-11-30T00:17:41.201Z,66.26
2022-11-30T00:20:08.791Z,66.02
2022-11-30T00:22:45.359Z,66.77
2022-11-30T00:25:11.869Z,66.01
2022-11-30T00:27:38.370Z,66.88
2022-11-30T00:30:06.084Z,68.55
2022-11-30T00:32:33.145Z,69.07
2022-11-30T00:34:59.682Z,68.16
2022-11-30T00:37:26.570Z,67.23
2022-11-30T00:39:53.022Z,67.68
2022-11-30T00:42:19.504Z,67.75
2022-11-30T00:44:47.110Z,67.91
2022-11-30T00:47:13.781Z,66.28
2022-11-30T00:49:40.233Z,65.85
2022-11-30T00:52:06.839Z,65.72
2022-11-30T00:54:33.570Z,66.76
2022-11-30T00:57:00.119Z,67.48
2022-11-30T00:59:26.574Z,67.13
2022-11-30T01:01:54.795Z,66.21
2022-11-30T01:04:21.625Z,65.36
2022-11-30T01:06:48.884Z,66.65
2022-11-30T01:09:15.337Z,66.28
2022-11-30T01:11:41.894Z,67.56
2022-11-30T01:14:08.551Z,66.63
2022-11-30T01:16:35.011Z,66.67
2022-11-30T01:19:01.789Z,66.68
2022-11-30T01:21:28.920Z,66.03
2022-11-30T01:23:55.995Z,65.61
2022-11-30T01:26:23.186Z,65.92
2022-11-30T01:28:54.241Z,65.41
2022-11-30T01:31:23.466Z,67.44
2022-11-30T01:33:51.605Z,67.79
2022-11-30T01:36:20.469Z,67.85
2022-11-30T01:38:52.087Z,67.58
2022-11-30T01:41:21.909Z,66.37
2022-11-30T01:44:19.586Z,66.64
2022-11-30T01:46:55.213Z,66.67
2022-11-30T01:49:33.488Z,66.61
2022-11-30T01:52:07.394Z,66.67
2022-11-30T01:54:41.227Z,65.43
2022-11-30T01:57:21.176Z,65.26
2022-11-30T01:59:48.752Z,65.18
2022-11-30T02:02:15.789Z,65.01
2022-11-30T02:04:42.337Z,64.65
2022-11-30T02:07:09.058Z,64.98
2022-11-30T02:09:44.548Z,65.53
2022-11-30T02:12:20.813Z,65.14
2022-11-30T02:14:50.270Z,66.22
2022-11-30T02:17:20.268Z,66.23
2022-11-30T02:20:05.751Z,64.60
2022-11-30T02:22:43.521Z,65.02
2022-11-30T02:25:15.790Z,64.76
2022-11-30T02:27:45.266Z,65.58
2022-11-30T02:30:14.300Z,65.14
2022-11-30T02:32:59.517Z,66.17
2022-11-30T02:35:29.718Z,65.06
2022-11-30T02:37:57.408Z,65.72
2022-11-30T02:40:24.004Z,66.14
2022-11-30T02:42:52.500Z,65.67
2022-11-30T02:45:42.111Z,65.83
2022-11-30T02:48:09.652Z,65.88
2022-11-30T02:50:47.731Z,65.30
2022-11-30T02:53:14.345Z,65.04
2022-11-30T02:55:40.911Z,65.04
2022-11-30T02:58:07.758Z,64.29
2022-11-30T03:00:34.268Z,65.20
2022-11-30T03:03:00.853Z,65.65
2022-11-30T03:05:27.540Z,65.32
2022-11-30T03:07:54.045Z,65.28
2022-11-30T03:10:20.783Z,64.19
2022-11-30T03:12:47.350Z,64.26
2022-11-30T03:15:13.903Z,64.46
2022-11-30T03:17:40.373Z,63.12
2022-11-30T03:20:07.525Z,62.78
2022-11-30T03:22:34.053Z,62.83
2022-11-30T03:25:00.676Z,62.65
2022-11-30T03:27:27.110Z,62.77
2022-11-30T03:29:53.723Z,62.62
2022-11-30T03:32:20.199Z,62.10
2022-11-30T03:34:46.868Z,62.54
2022-11-30T03:37:13.598Z,61.95
2022-11-30T03:39:40.046Z,62.75
2022-11-30T03:42:06.704Z,61.67
2022-11-30T03:44:33.162Z,61.31
2022-11-30T03:46:59.960Z,61.30
2022-11-30T03:49:26.532Z,61.52
2022-11-30T03:51:53.019Z,61.66
2022-11-30T03:54:19.559Z,61.41
2022-11-30T03:56:46.078Z,61.37
2022-11-30T03:59:12.518Z,62.68
2022-11-30T04:01:43.058Z,62.03
2022-11-30T04:04:11.584Z,63.23
2022-11-30T04:06:38.488Z,64.29
2022-11-30T04:09:05.002Z,64.15
2022-11-30T04:11:31.624Z,63.74
2022-11-30T04:13:59.393Z,63.86
2022-11-30T04:16:26.077Z,63.37
2022-11-30T04:18:52.611Z,64.30
2022-11-30T04:21:19.264Z,63.95
2022-11-30T04:23:45.746Z,63.91
2022-11-30T04:26:14.014Z,65.54
2022-11-30T04:28:41.134Z,64.52
2022-11-30T04:31:08.219Z,64.77
2022-11-30T04:33:34.764Z,64.60
2022-11-30T04:36:04.068Z,63.69
2022-11-30T04:38:31.029Z,63.29
2022-11-30T04:40:57.669Z,62.94
2022-11-30T04:43:24.868Z,62.70
2022-11-30T04:45:51.720Z,62.46
2022-11-30T04:48:19.142Z,62.64
2022-11-30T04:50:45.623Z,62.60
2022-11-30T04:53:12.325Z,61.85
2022-11-30T04:55:39.137Z,61.64
2022-11-30T04:58:06.410Z,61.38
2022-11-30T05:00:33.447Z,61.12
2022-11-30T05:03:00.003Z,61.36
2022-11-30T05:05:27.109Z,62.41
2022-11-30T05:07:57.849Z,61.87
2022-11-30T05:10:25.140Z,61.97
2022-11-30T05:12:51.966Z,61.09
2022-11-30T05:15:18.685Z,61.01
2022-11-30T05:17:45.169Z,61.06
2022-11-30T05:20:11.897Z,60.13
2022-11-30T05:22:38.408Z,60.36
2022-11-30T05:25:05.315Z,60.99
2022-11-30T05:27:31.877Z,61.85
2022-11-30T05:29:58.391Z,60.77
2022-11-30T05:32:24.880Z,61.44
2022-11-30T05:34:52.089Z,62.09
2022-11-30T05:37:19.677Z,61.25
2022-11-30T05:39:46.193Z,62.33
2022-11-30T05:42:13.712Z,61.94
2022-11-30T05:44:40.179Z,62.31
2022-11-30T05:47:06.818Z,62.84
2022-11-30T05:49:33.566Z,61.99
2022-11-30T05:52:00.169Z,62.33
2022-11-30T05:54:26.939Z,61.54
2022-11-30T05:56:55.250Z,61.04
2022-11-30T05:59:22.805Z,61.03
2022-11-30T06:01:51.965Z,60.24
2022-11-30T06:04:18.748Z,60.00
2022-11-30T06:06:45.196Z,60.00
2022-11-30T06:09:11.703Z,59.71
2022-11-30T06:11:38.240Z,59.25
2022-11-30T06:14:04.724Z,59.03
2022-11-30T06:16:31.654Z,58.91
2022-11-30T06:18:58.157Z,59.76
2022-11-30T06:21:25.129Z,59.60
2022-11-30T06:23:52.460Z,58.83
2022-11-30T06:26:19.787Z,59.72
2022-11-30T06:28:48.532Z,59.29
2022-11-30T06:31:16.243Z,60.03
2022-11-30T06:33:42.866Z,59.75
2022-11-30T06:36:09.738Z,60.37
2022-11-30T06:38:36.239Z,59.36
2022-11-30T06:41:08.161Z,59.29
2022-11-30T06:43:39.188Z,59.00
2022-11-30T06:46:06.941Z,59.30
2022-11-30T06:48:34.754Z,59.88
2022-11-30T06:51:05.399Z,60.14
2022-11-30T06:53:31.979Z,61.56
2022-11-30T06:55:58.486Z,62.29
2022-11-30T06:58:25.362Z,61.62
2022-11-30T07:00:51.938Z,60.85
2022-11-30T07:03:18.587Z,60.99
2022-11-30T07:05:46.429Z,60.31
2022-11-30T07:08:14.657Z,59.89
2022-11-30T07:10:45.776Z,59.84
2022-11-30T07:13:18.049Z,59.67
2022-11-30T07:15:44.980Z,59.49
2022-11-30T07:18:11.904Z,59.34
2022-11-30T07:20:39.054Z,58.75
2022-11-30T07:23:24.250Z,58.88
2022-11-30T07:26:06.518Z,58.66
2022-11-30T07:28:41.453Z,58.56
2022-11-30T07:31:24.604Z,58.95
2022-11-30T07:33:51.551Z,59.00
2022-11-30T07:36:19.723Z,58.74
2022-11-30T07:38:46.371Z,58.44
2022-11-30T07:41:13.256Z,59.08
2022-11-30T07:43:40.344Z,58.32
2022-11-30T07:46:07.216Z,58.69
2022-11-30T07:48:35.192Z,59.27
2022-11-30T07:51:06.633Z,59.00
2022-11-30T07:53:33.128Z,58.76
2022-11-30T07:56:07.986Z,59.24
2022-11-30T07:58:34.791Z,58.30
2022-11-30T08:01:06.577Z,58.01
2022-11-30T08:03:37.130Z,58.34
2022-11-30T08:06:30.817Z,58.06
2022-11-30T08:08:59.641Z,57.95
2022-11-30T08:11:28.459Z,57.87
2022-11-30T08:13:55.348Z,58.18
2022-11-30T08:16:24.487Z,58.67
2022-11-30T08:18:51.467Z,58.40
2022-11-30T08:21:20.005Z,58.18
2022-11-30T08:23:51.818Z,58.00
2022-11-30T08:26:19.363Z,57.75
2022-11-30T08:28:47.410Z,57.60
2022-11-30T08:31:20.669Z,57.76
2022-11-30T08:33:47.562Z,57.72
2022-11-30T08:36:19.861Z,57.86
2022-11-30T08:38:46.886Z,57.47
2022-11-30T08:41:15.737Z,57.89
2022-11-30T08:43:42.870Z,57.39
2022-11-30T08:46:42.623Z,57.43
2022-11-30T08:49:19.719Z,57.07
2022-11-30T08:52:15.848Z,57.36
2022-11-30T08:54:33.695Z,57.53
2022-11-30T08:57:00.186Z,57.26
2022-11-30T08:59:26.716Z,57.12
2022-11-30T09:01:53.337Z,57.38
2022-11-30T09:04:19.998Z,56.56
2022-11-30T09:06:46.453Z,58.07
2022-11-30T09:09:13.700Z,58.19
2022-11-30T09:11:40.223Z,58.01
2022-11-30T09:14:09.021Z,58.12
2022-11-30T09:16:35.863Z,57.95
2022-11-30T09:19:02.475Z,57.68
2022-11-30T09:21:29.530Z,57.90
2022-11-30T09:23:56.549Z,57.54
2022-11-30T09:26:25.407Z,57.59
2022-11-30T09:28:53.202Z,57.57
2022-11-30T09:31:22.098Z,57.58
2022-11-30T09:33:48.970Z,57.73
2022-11-30T09:36:22.312Z,58.35
2022-11-30T09:38:49.194Z,58.05
2022-11-30T09:41:46.659Z,58.49
2022-11-30T09:44:27.081Z,59.19
2022-11-30T09:46:59.631Z,59.30
2022-11-30T09:49:34.216Z,61.47
2022-11-30T09:52:04.437Z,61.58
2022-11-30T09:54:37.468Z,61.27
2022-11-30T09:57:33.569Z,60.46
2022-11-30T10:00:04.063Z,60.49
2022-11-30T10:02:33.110Z,60.08
2022-11-30T10:05:00.600Z,59.94
2022-11-30T10:08:02.893Z,59.88
2022-11-30T10:10:41.919Z,60.24
2022-11-30T10:14:13.282Z,59.96
2022-11-30T10:17:11.952Z,59.91
2022-11-30T10:22:40.023Z,61.00
2022-11-30T10:25:12.472Z,60.51
2022-11-30T10:28:18.053Z,60.07
2022-11-30T10:30:49.515Z,60.63
2022-11-30T10:33:20.982Z,60.05
2022-11-30T10:35:55.356Z,60.18
2022-11-30T10:38:31.894Z,59.99
2022-11-30T10:41:15.716Z,60.23
2022-11-30T10:43:46.335Z,60.56
2022-11-30T10:46:22.785Z,62.94
2022-11-30T10:48:57.438Z,62.68
2022-11-30T10:51:25.275Z,62.84
2022-11-30T10:53:51.727Z,61.50
2022-11-30T10:56:18.211Z,61.93
2022-11-30T10:58:51.002Z,61.96
2022-11-30T11:01:39.272Z,61.67
2022-11-30T11:04:08.946Z,61.06
2022-11-30T11:06:35.989Z,61.20
2022-11-30T11:09:24.541Z,61.37
2022-11-30T11:11:55.371Z,62.39
2022-11-30T11:14:23.574Z,61.35
2022-11-30T11:16:57.274Z,61.17
2022-11-30T11:19:42.776Z,61.13
2022-11-30T11:22:25.182Z,61.00
2022-11-30T11:24:54.860Z,60.88
2022-11-30T11:27:32.325Z,61.05
2022-11-30T11:30:02.487Z,61.14
2022-11-30T11:32:30.353Z,61.05
2022-11-30T11:34:58.210Z,60.82
2022-11-30T11:37:28.723Z,60.88
2022-11-30T11:39:57.909Z,61.01
2022-11-30T11:42:24.719Z,60.94
2022-11-30T11:44:52.664Z,60.53
2022-11-30T11:47:40.394Z,61.31
2022-11-30T11:50:07.511Z,61.19
2022-11-30T11:52:34.068Z,61.54
2022-11-30T11:55:04.898Z,61.47
2022-11-30T11:57:42.576Z,60.76
2022-11-30T12:00:16.841Z,60.76
2022-11-30T12:02:52.207Z,60.43
2022-11-30T12:05:25.208Z,60.42
2022-11-30T12:08:25.715Z,60.67
2022-11-30T12:11:07.988Z,60.46
2022-11-30T12:13:39.326Z,60.21
2022-11-30T12:16:12.006Z,60.79
2022-11-30T12:19:05.558Z,61.27
2022-11-30T12:21:52.125Z,61.61
2022-11-30T12:24:30.169Z,61.20
2022-11-30T12:27:19.442Z,61.43
2022-11-30T12:29:55.108Z,61.49
2022-11-30T12:32:34.934Z,61.61
2022-11-30T12:35:37.454Z,61.33
2022-11-30T12:38:31.325Z,61.86
2022-11-30T12:41:00.982Z,61.06
2022-11-30T12:43:36.554Z,61.60
2022-11-30T12:46:29.303Z,61.02
2022-11-30T12:49:09.825Z,60.81
2022-11-30T12:52:04.728Z,60.91
2022-11-30T12:54:53.475Z,60.98
2022-11-30T12:57:31.428Z,60.84
2022-11-30T13:00:20.399Z,60.65
2022-11-30T13:03:23.724Z,60.42
2022-11-30T13:05:58.073Z,60.50
2022-11-30T13:08:36.092Z,61.21
2022-11-30T13:11:06.464Z,61.29
2022-11-30T13:13:35.479Z,60.86
2022-11-30T13:16:05.103Z,61.31
2022-11-30T13:18:34.389Z,61.12
2022-11-30T13:21:17.915Z,61.47
2022-11-30T13:23:50.302Z,61.69
2022-11-30T13:26:31.385Z,62.05
2022-11-30T13:29:20.607Z,61.67
2022-11-30T13:31:53.242Z,61.40
2022-11-30T13:34:30.098Z,61.16
2022-11-30T13:37:24.325Z,61.76
2022-11-30T13:39:55.813Z,61.57
2022-11-30T13:42:22.226Z,61.90
2022-11-30T13:44:49.796Z,61.56
2022-11-30T13:47:20.203Z,62.95
2022-11-30T13:49:47.116Z,62.22
2022-11-30T13:52:22.739Z,62.51
2022-11-30T13:54:54.468Z,62.99
2022-11-30T13:57:27.070Z,63.21
2022-11-30T13:59:58.693Z,62.59
2022-11-30T14:02:36.496Z,62.24
2022-11-30T14:05:17.931Z,63.03
2022-11-30T14:08:00.649Z,62.55
2022-11-30T14:10:39.071Z,62.15
2022-11-30T14:13:29.522Z,64.05
2022-11-30T14:16:01.349Z,63.06
2022-11-30T14:18:48.205Z,64.22
2022-11-30T14:21:37.024Z,63.33
2022-11-30T14:24:23.512Z,63.16
2022-11-30T14:26:51.110Z,62.78
2022-11-30T14:29:33.404Z,62.68
2022-11-30T14:32:07.156Z,62.22
2022-11-30T14:34:39.091Z,62.37
2022-11-30T14:37:13.961Z,62.03
2022-11-30T14:39:43.740Z,63.47
2022-11-30T14:42:24.913Z,62.41
2022-11-30T14:44:51.815Z,62.16
2022-11-30T14:47:25.597Z,61.82
2022-11-30T14:49:54.768Z,62.30
2022-11-30T14:52:32.291Z,62.36
2022-11-30T14:55:15.225Z,62.93
2022-11-30T14:57:55.379Z,62.46
2022-11-30T15:00:22.055Z,62.31
2022-11-30T15:02:49.506Z,62.56
2022-11-30T15:05:18.217Z,63.90
2022-11-30T15:07:45.536Z,63.26
2022-11-30T15:10:29.467Z,64.10
2022-11-30T15:12:57.517Z,63.85
2022-11-30T15:15:27.808Z,64.35
2022-11-30T15:18:14.157Z,63.95
2022-11-30T15:20:48.943Z,62.97
2022-11-30T15:23:15.918Z,63.06
2022-11-30T15:25:48.719Z,62.92
2022-11-30T15:28:19.150Z,62.54
2022-11-30T15:30:47.061Z,62.78
2022-11-30T15:33:19.269Z,63.68
2022-11-30T15:36:13.603Z,64.06
2022-11-30T15:38:34.728Z,63.23
2022-11-30T15:41:03.668Z,63.94
2022-11-30T15:43:36.457Z,65.07
2022-11-30T15:46:03.514Z,63.63
2022-11-30T15:48:40.060Z,63.03
2022-11-30T15:51:07.070Z,62.75
2022-11-30T15:53:33.498Z,62.59
2022-11-30T15:56:11.561Z,62.69
2022-11-30T15:58:46.499Z,62.32
2022-11-30T16:01:24.148Z,62.86
2022-11-30T16:03:59.563Z,62.54
2022-11-30T16:06:27.414Z,62.85
2022-11-30T16:08:55.131Z,62.89
2022-11-30T16:11:21.744Z,63.74
2022-11-30T16:13:48.289Z,62.97
2022-11-30T16:16:23.742Z,62.55
2022-11-30T16:18:50.398Z,62.63
2022-11-30T16:21:18.862Z,62.78
2022-11-30T16:23:46.372Z,63.03
2022-11-30T16:26:36.026Z,62.97
2022-11-30T16:29:01.993Z,63.01
2022-11-30T16:31:28.648Z,62.88
2022-11-30T16:33:55.400Z,62.71
2022-11-30T16:36:22.104Z,62.39
2022-11-30T16:38:52.596Z,62.85
2022-11-30T16:41:22.104Z,62.11
2022-11-30T16:43:52.747Z,61.91
2022-11-30T16:46:21.837Z,61.75
2022-11-30T16:48:48.849Z,61.88
2022-11-30T16:51:17.094Z,61.64
2022-11-30T16:53:44.535Z,61.86
2022-11-30T16:56:12.475Z,62.81
2022-11-30T16:58:39.263Z,63.86
2022-11-30T17:01:07.349Z,62.54
2022-11-30T17:03:35.160Z,62.66
2022-11-30T17:06:02.339Z,61.84
2022-11-30T17:08:28.839Z,62.25
2022-11-30T17:10:55.419Z,61.61
2022-11-30T17:13:22.184Z,61.87
2022-11-30T17:15:49.175Z,61.57
2022-11-30T17:18:15.765Z,61.00
2022-11-30T17:20:42.559Z,61.79
2022-11-30T17:23:09.129Z,61.71
2022-11-30T17:25:35.645Z,61.97
2022-11-30T17:28:02.192Z,62.76
2022-11-30T17:30:28.872Z,61.89
2022-11-30T17:32:55.439Z,61.84
2022-11-30T17:35:21.937Z,62.13
2022-11-30T17:37:58.303Z,61.64
2022-11-30T17:40:24.873Z,62.02
2022-11-30T17:42:51.392Z,61.42
2022-11-30T17:45:17.951Z,61.56
2022-11-30T17:47:44.497Z,62.45
2022-11-30T17:50:11.468Z,61.64
2022-11-30T17:52:38.032Z,61.44
2022-11-30T17:55:04.985Z,61.64
2022-11-30T17:57:31.520Z,62.26
2022-11-30T17:59:58.049Z,61.88
2022-11-30T18:02:24.615Z,61.57
2022-11-30T18:04:52.597Z,61.71
2022-11-30T18:07:20.048Z,61.56
2022-11-30T18:09:47.150Z,61.58
2022-11-30T18:12:13.783Z,61.35
2022-11-30T18:14:40.235Z,60.91
2022-11-30T18:17:07.134Z,61.51
2022-11-30T18:19:33.783Z,61.35
2022-11-30T18:22:00.343Z,60.87
2022-11-30T18:24:26.851Z,61.99
2022-11-30T18:26:53.671Z,62.00
2022-11-30T18:29:20.228Z,61.51
2022-11-30T18:31:48.521Z,61.30
2022-11-30T18:34:15.395Z,61.91
2022-11-30T18:36:41.984Z,63.66
2022-11-30T18:39:08.557Z,62.69
2022-11-30T18:41:35.063Z,61.91
2022-11-30T18:44:01.574Z,62.33
2022-11-30T18:46:28.103Z,61.98
2022-11-30T18:48:55.343Z,62.24
2022-11-30T18:51:24.448Z,61.79
2022-11-30T18:53:59.309Z,61.58
2022-11-30T18:56:27.713Z,62.12
2022-11-30T18:58:56.447Z,61.66
2022-11-30T19:01:23.244Z,61.26
2022-11-30T19:03:54.399Z,61.45
2022-11-30T19:06:21.577Z,61.10
2022-11-30T19:08:48.414Z,62.46
2022-11-30T19:11:16.463Z,62.04
2022-11-30T19:13:44.038Z,62.23
2022-11-30T19:16:13.172Z,61.90
2022-11-30T19:18:40.004Z,61.79
2022-11-30T19:21:10.496Z,61.43
2022-11-30T19:23:38.081Z,61.34
2022-11-30T19:26:05.986Z,61.35
2022-11-30T19:28:33.881Z,62.00
2022-11-30T19:31:00.760Z,61.53
2022-11-30T19:33:27.782Z,61.24
2022-11-30T19:36:00.691Z,61.37
2022-11-30T19:38:27.329Z,61.50
2022-11-30T19:40:53.765Z,62.65
2022-11-30T19:43:20.272Z,62.46
2022-11-30T19:45:46.839Z,62.25
2022-11-30T19:48:13.342Z,62.52
2022-11-30T19:50:39.822Z,61.64
2022-11-30T19:53:06.357Z,61.61
2022-11-30T19:55:33.113Z,61.48
2022-11-30T19:57:59.599Z,61.64
2022-11-30T20:00:26.222Z,62.97
2022-11-30T20:02:53.137Z,62.72
2022-11-30T20:05:19.796Z,61.80
2022-11-30T20:07:46.332Z,61.91
2022-11-30T20:10:15.700Z,62.35
2022-11-30T20:12:42.263Z,61.97
2022-11-30T20:15:09.309Z,61.60
2022-11-30T20:17:36.232Z,61.35
2022-11-30T20:20:02.883Z,61.41
2022-11-30T20:22:29.736Z,61.15
2022-11-30T20:24:56.251Z,61.34
2022-11-30T20:27:24.701Z,61.30
2022-11-30T20:29:52.197Z,61.14
2022-11-30T20:32:19.660Z,61.55
2022-11-30T20:34:46.625Z,61.92
2022-11-30T20:37:15.683Z,61.38
2022-11-30T20:39:45.708Z,61.18
2022-11-30T20:42:13.047Z,60.79
2022-11-30T20:44:39.586Z,61.04
2022-11-30T20:47:06.119Z,60.95
2022-11-30T20:49:32.604Z,61.41
2022-11-30T20:51:59.179Z,61.19
2022-11-30T20:54:26.252Z,61.34
2022-11-30T20:56:52.784Z,61.79
2022-11-30T20:59:23.918Z,61.07
2022-11-30T21:01:50.616Z,61.36
2022-11-30T21:04:17.194Z,61.44
2022-11-30T21:06:45.726Z,61.42
2022-11-30T21:09:17.539Z,61.15
2022-11-30T21:11:44.464Z,61.12
2022-11-30T21:14:11.504Z,61.15
2022-11-30T21:16:37.996Z,61.29
2022-11-30T21:19:04.596Z,61.31
2022-11-30T21:21:34.445Z,60.75
2022-11-30T21:24:03.485Z,60.62
2022-11-30T21:26:32.155Z,60.52
2022-11-30T21:29:01.561Z,61.56
2022-11-30T21:31:28.206Z,61.30
2022-11-30T21:33:54.844Z,61.09
2022-11-30T21:36:23.018Z,60.91
2022-11-30T21:39:04.606Z,61.06
2022-11-30T21:41:32.988Z,60.73
2022-11-30T21:43:59.456Z,60.63
2022-11-30T21:46:26.019Z,60.95
2022-11-30T21:48:52.647Z,60.59
2022-11-30T21:51:21.479Z,60.35
2022-11-30T21:53:56.552Z,60.60
2022-11-30T21:56:31.367Z,60.95
2022-11-30T21:58:58.059Z,60.39
2022-11-30T22:01:30.084Z,60.34
2022-11-30T22:03:57.991Z,60.57
2022-11-30T22:06:25.478Z,61.08
2022-11-30T22:08:52.183Z,60.09
2022-11-30T22:11:20.804Z,60.40
2022-11-30T22:13:52.208Z,60.11
2022-11-30T22:16:19.460Z,60.79
2022-11-30T22:18:46.915Z,60.36
2022-11-30T22:21:19.184Z,60.12
2022-11-30T22:23:49.022Z,60.53
2022-11-30T22:26:24.164Z,60.51
2022-11-30T22:28:58.652Z,60.05
2022-11-30T22:31:28.192Z,59.93
2022-11-30T22:33:55.692Z,60.21
2022-11-30T22:36:24.699Z,60.87
2022-11-30T22:38:59.214Z,60.91
2022-11-30T22:41:26.463Z,60.99
2022-11-30T22:43:53.334Z,60.76
2022-11-30T22:46:22.153Z,60.98
2022-11-30T22:48:48.883Z,60.66
2022-11-30T22:51:18.977Z,60.08
2022-11-30T22:53:47.579Z,60.45
2022-11-30T22:56:18.573Z,60.87
2022-11-30T22:58:47.198Z,60.02
2022-11-30T23:01:19.498Z,60.86
2022-11-30T23:03:48.017Z,60.32
2022-11-30T23:06:16.668Z,59.81
2022-11-30T23:08:43.499Z,59.87
2022-11-30T23:11:15.040Z,60.14
2022-11-30T23:13:42.640Z,59.98
2022-11-30T23:16:10.616Z,59.86
2022-11-30T23:18:42.125Z,59.89
2022-11-30T23:21:30.264Z,59.58
2022-11-30T23:23:59.093Z,59.27
2022-11-30T23:26:30.794Z,59.56
2022-11-30T23:29:02.619Z,59.22
2022-11-30T23:31:35.319Z,59.37
2022-11-30T23:34:04.313Z,59.50
2022-11-30T23:36:30.896Z,60.53
2022-11-30T23:39:02.361Z,61.15
2022-11-30T23:41:29.075Z,60.33
2022-11-30T23:43:55.600Z,59.92
2022-11-30T23:46:22.481Z,60.32
2022-11-30T23:48:49.196Z,59.83
2022-11-30T23:51:15.716Z,60.20
2022-11-30T23:53:42.466Z,61.38
2022-11-30T23:56:12.278Z,61.42
2022-11-30T23:58:39.732Z,60.54
